Wingate, Maryland
Current Conditions -  °F | °C
As of 8:52 PM on Saturday 20 Dec 2014 (Local Time) from KNHK Reporting Station
Overcast Overcast  
Wind Chill: 33°   Ceiling: 11000
Heat Index: 33°   Visibility: 10mi
Dew Point: 23°   Wind: 0mph
Humidity: 66%   Direction: NA
Pressure: 30.3"   Gusts: NA
Location:  38.28°N, 76.08°W
Report Text: KNHK 210152Z AUTO 00000KT 10SM OVC110 01/M05 A3030 RMK AO2 SLP261 T00061050
Loading
Personal Weather Stations






























Interactive Weather Map New forecast layout! Learn more

10-Day Weather Forecast

Advertisements
Track Severe Weather on mobile